createdAt,value
2018-08-31T00:02:30.768Z,2.53
2018-08-31T00:05:41.420Z,2.20
2018-08-31T00:09:26.634Z,2.13
2018-08-31T00:13:00.072Z,2.37
2018-08-31T00:15:29.064Z,2.20
2018-08-31T00:17:58.069Z,2.70
2018-08-31T00:20:27.210Z,2.27
2018-08-31T00:22:56.226Z,2.27
2018-08-31T00:26:07.229Z,2.20
2018-08-31T00:28:48.323Z,2.10
2018-08-31T00:33:38.640Z,2.20
2018-08-31T00:36:15.704Z,2.40
2018-08-31T00:38:55.214Z,2.17
2018-08-31T00:42:15.565Z,2.40
2018-08-31T00:44:55.958Z,1.90
2018-08-31T00:47:25.057Z,2.37
2018-08-31T00:49:54.413Z,2.53
2018-08-31T00:52:23.505Z,2.60
2018-08-31T00:54:52.715Z,2.30
2018-08-31T00:57:21.797Z,2.60
2018-08-31T00:59:50.928Z,2.60
2018-08-31T01:02:20.021Z,2.70
2018-08-31T01:04:49.128Z,2.73
2018-08-31T01:07:18.288Z,2.50
2018-08-31T01:09:47.393Z,3.00
2018-08-31T01:12:16.485Z,2.57
2018-08-31T01:14:45.686Z,2.23
2018-08-31T01:17:14.803Z,2.73
2018-08-31T01:19:43.862Z,2.07
2018-08-31T01:22:13.622Z,2.60
2018-08-31T01:24:42.675Z,2.60
2018-08-31T01:27:11.797Z,2.57
2018-08-31T01:29:40.861Z,2.60
2018-08-31T01:32:10.208Z,2.33
2018-08-31T01:34:39.285Z,2.53
2018-08-31T01:37:08.294Z,2.47
2018-08-31T01:39:37.369Z,2.30
2018-08-31T01:42:06.480Z,2.70
2018-08-31T01:44:35.632Z,2.50
2018-08-31T01:47:04.832Z,2.50
2018-08-31T01:49:33.933Z,2.73
2018-08-31T01:52:03.011Z,2.50
2018-08-31T01:54:32.133Z,2.80
2018-08-31T01:57:01.197Z,2.60
2018-08-31T01:59:30.187Z,2.60
2018-08-31T02:01:59.223Z,2.60
2018-08-31T02:04:28.306Z,2.50
2018-08-31T02:06:57.501Z,2.70
2018-08-31T02:09:26.620Z,2.27
2018-08-31T02:11:55.699Z,2.53
2018-08-31T02:14:24.819Z,2.80
2018-08-31T02:16:53.892Z,2.93
2018-08-31T02:19:23.091Z,2.70
2018-08-31T02:21:52.201Z,2.47
2018-08-31T02:24:21.317Z,2.40
2018-08-31T02:26:50.500Z,2.70
2018-08-31T02:29:20.584Z,3.13
2018-08-31T02:31:49.799Z,2.60
2018-08-31T02:34:18.911Z,3.00
2018-08-31T02:36:48.005Z,2.50
2018-08-31T02:39:17.266Z,2.60
2018-08-31T02:41:46.287Z,2.63
2018-08-31T02:44:15.397Z,2.70
2018-08-31T02:46:45.150Z,2.67
2018-08-31T02:49:14.281Z,2.73
2018-08-31T02:51:43.376Z,2.70
2018-08-31T02:54:12.356Z,2.77
2018-08-31T02:56:41.469Z,2.80
2018-08-31T02:59:10.526Z,2.67
2018-08-31T03:01:39.547Z,2.57
2018-08-31T03:04:08.689Z,3.17
2018-08-31T03:06:37.750Z,2.90
2018-08-31T03:09:07.260Z,2.40
2018-08-31T03:11:36.508Z,2.77
2018-08-31T03:14:05.571Z,2.60
2018-08-31T03:16:34.942Z,2.60
2018-08-31T03:19:04.040Z,3.33
2018-08-31T03:21:33.146Z,2.63
2018-08-31T03:24:02.126Z,2.50
2018-08-31T03:26:32.255Z,2.87
2018-08-31T03:29:01.408Z,2.70
2018-08-31T03:31:30.436Z,2.90
2018-08-31T03:33:59.546Z,2.93
2018-08-31T03:36:28.628Z,3.30
2018-08-31T03:38:57.694Z,2.63
2018-08-31T03:41:26.730Z,2.80
2018-08-31T03:43:55.806Z,2.80
2018-08-31T03:46:24.889Z,2.80
2018-08-31T03:48:53.962Z,2.63
2018-08-31T03:51:23.001Z,3.20
2018-08-31T03:53:52.028Z,2.60
2018-08-31T03:56:21.081Z,2.70
2018-08-31T03:58:50.329Z,2.80
2018-08-31T04:01:19.393Z,3.13
2018-08-31T04:03:48.469Z,2.63
2018-08-31T04:06:17.565Z,3.43
2018-08-31T04:08:46.709Z,2.70
2018-08-31T04:11:15.823Z,3.17
2018-08-31T04:13:44.809Z,2.87
2018-08-31T04:16:13.857Z,3.23
2018-08-31T04:18:42.837Z,3.17
2018-08-31T04:21:11.937Z,3.17
2018-08-31T04:23:41.010Z,3.40
2018-08-31T04:26:10.229Z,3.00
2018-08-31T04:28:39.317Z,3.30
2018-08-31T04:35:55.156Z,3.00
2018-08-31T04:38:24.322Z,3.37
2018-08-31T04:40:53.434Z,3.40
2018-08-31T04:43:22.517Z,2.93
2018-08-31T04:45:51.656Z,3.20
2018-08-31T04:48:20.689Z,3.40
2018-08-31T04:50:49.745Z,3.50
2018-08-31T04:53:18.809Z,3.63
2018-08-31T04:55:47.954Z,3.90
2018-08-31T04:58:16.966Z,3.80
2018-08-31T05:00:47.533Z,3.30
2018-08-31T05:03:17.299Z,3.77
2018-08-31T05:05:46.749Z,4.53
2018-08-31T05:08:15.753Z,4.30
2018-08-31T05:10:44.833Z,5.87
2018-08-31T05:13:14.033Z,3.83
2018-08-31T05:15:43.293Z,3.97
2018-08-31T05:18:12.343Z,4.00
2018-08-31T05:20:41.532Z,3.83
2018-08-31T05:23:10.617Z,3.60
2018-08-31T05:25:39.717Z,4.10
2018-08-31T05:28:08.849Z,3.93
2018-08-31T05:30:37.880Z,3.53
2018-08-31T05:33:06.905Z,3.80
2018-08-31T05:35:36.015Z,3.70
2018-08-31T05:38:05.125Z,4.20
2018-08-31T05:40:34.251Z,4.03
2018-08-31T05:43:03.247Z,3.87
2018-08-31T05:45:32.285Z,3.70
2018-08-31T05:48:01.469Z,4.03
2018-08-31T05:50:30.551Z,3.90
2018-08-31T05:52:59.613Z,3.83
2018-08-31T05:55:28.661Z,4.53
2018-08-31T05:57:57.800Z,4.93
2018-08-31T06:00:26.866Z,4.40
2018-08-31T06:02:56.154Z,4.63
2018-08-31T06:05:25.454Z,4.50
2018-08-31T06:07:54.604Z,4.40
2018-08-31T06:10:23.619Z,4.23
2018-08-31T06:12:52.712Z,4.57
2018-08-31T06:15:22.034Z,4.13
2018-08-31T06:17:51.112Z,4.20
2018-08-31T06:20:20.236Z,4.00
2018-08-31T06:22:49.280Z,4.57
2018-08-31T06:25:18.411Z,4.60
2018-08-31T06:27:52.613Z,4.50
2018-08-31T06:30:21.832Z,5.17
2018-08-31T06:32:50.937Z,4.70
2018-08-31T06:35:20.230Z,4.53
2018-08-31T06:37:49.362Z,4.67
2018-08-31T06:40:18.374Z,4.30
2018-08-31T06:42:47.579Z,4.37
2018-08-31T06:45:16.577Z,4.13
2018-08-31T06:47:45.581Z,4.30
2018-08-31T06:50:14.675Z,3.90
2018-08-31T06:52:43.764Z,3.63
2018-08-31T06:55:12.794Z,4.10
2018-08-31T06:57:41.898Z,4.30
2018-08-31T07:00:11.030Z,5.07
2018-08-31T07:02:40.046Z,5.03
2018-08-31T07:05:09.066Z,6.53
2018-08-31T07:07:38.610Z,6.20
2018-08-31T07:10:07.677Z,5.80
2018-08-31T07:12:36.721Z,5.03
2018-08-31T07:15:06.613Z,4.93
2018-08-31T07:17:35.743Z,4.67
2018-08-31T07:20:05.108Z,4.53
2018-08-31T07:22:34.142Z,5.00
2018-08-31T07:25:03.270Z,4.63
2018-08-31T07:27:32.395Z,5.60
2018-08-31T07:30:01.447Z,4.20
2018-08-31T07:32:30.454Z,4.43
2018-08-31T07:34:59.453Z,4.87
2018-08-31T07:37:28.434Z,5.37
2018-08-31T07:39:57.542Z,5.30
2018-08-31T07:42:26.554Z,4.63
2018-08-31T07:44:55.634Z,5.13
2018-08-31T07:47:24.710Z,4.90
2018-08-31T07:49:53.806Z,4.47
2018-08-31T07:52:22.890Z,4.23
2018-08-31T07:54:51.906Z,3.80
2018-08-31T07:57:21.034Z,3.63
2018-08-31T07:59:50.131Z,3.60
2018-08-31T08:02:19.158Z,3.33
2018-08-31T08:04:48.174Z,3.30
2018-08-31T08:07:17.217Z,3.33
2018-08-31T08:09:46.260Z,3.90
2018-08-31T08:12:15.222Z,3.23
2018-08-31T08:14:44.273Z,3.17
2018-08-31T08:17:13.386Z,3.10
2018-08-31T08:19:42.461Z,3.10
2018-08-31T08:22:11.520Z,3.13
2018-08-31T08:24:40.659Z,2.63
2018-08-31T08:27:09.725Z,2.60
2018-08-31T08:29:38.920Z,2.83
2018-08-31T08:32:07.954Z,2.70
2018-08-31T08:34:36.932Z,2.73
2018-08-31T08:37:06.052Z,3.03
2018-08-31T08:39:35.252Z,2.70
2018-08-31T08:42:04.304Z,2.03
2018-08-31T08:44:33.326Z,2.40
2018-08-31T08:47:02.383Z,2.40
2018-08-31T08:49:31.413Z,2.10
2018-08-31T08:52:00.509Z,2.40
2018-08-31T08:54:29.591Z,2.20
2018-08-31T08:56:58.594Z,2.13
2018-08-31T08:59:27.688Z,2.50
2018-08-31T09:01:56.765Z,2.10
2018-08-31T09:04:25.910Z,2.20
2018-08-31T09:06:54.941Z,1.77
2018-08-31T09:09:24.041Z,2.00
2018-08-31T09:11:53.034Z,2.10
2018-08-31T09:14:22.101Z,1.80
2018-08-31T09:16:51.147Z,1.83
2018-08-31T09:19:20.243Z,2.20
2018-08-31T09:21:49.265Z,2.40
2018-08-31T09:24:18.257Z,1.90
2018-08-31T09:26:48.422Z,2.03
2018-08-31T09:29:18.947Z,1.60
2018-08-31T09:31:48.148Z,1.70
2018-08-31T09:34:17.257Z,1.63
2018-08-31T09:36:47.017Z,2.13
2018-08-31T09:39:16.152Z,2.23
2018-08-31T09:41:45.282Z,2.00
2018-08-31T09:44:14.433Z,5.17
2018-08-31T09:46:43.554Z,1.73
2018-08-31T09:49:12.945Z,2.93
2018-08-31T09:51:42.005Z,2.20
2018-08-31T09:54:11.008Z,1.47
2018-08-31T09:56:40.238Z,1.80
2018-08-31T09:59:09.427Z,2.37
2018-08-31T10:01:38.590Z,2.10
2018-08-31T10:04:07.704Z,1.63
2018-08-31T10:06:36.796Z,1.77
2018-08-31T10:09:07.890Z,1.83
2018-08-31T10:11:37.023Z,1.70
2018-08-31T10:14:06.033Z,1.73
2018-08-31T10:16:35.039Z,1.77
2018-08-31T10:19:04.094Z,2.00
2018-08-31T10:21:33.088Z,1.57
2018-08-31T10:24:02.103Z,1.73
2018-08-31T10:26:31.074Z,2.07
2018-08-31T10:29:00.218Z,1.37
2018-08-31T10:31:29.328Z,1.50
2018-08-31T10:33:58.382Z,1.40
2018-08-31T10:36:27.380Z,1.60
2018-08-31T10:38:56.534Z,1.47
2018-08-31T10:41:25.641Z,1.67
2018-08-31T10:43:54.702Z,1.40
2018-08-31T10:46:23.768Z,1.53
2018-08-31T10:48:52.839Z,1.90
2018-08-31T10:51:21.865Z,1.90
2018-08-31T10:53:51.009Z,2.00
2018-08-31T10:56:20.042Z,1.67
2018-08-31T10:58:48.961Z,1.43
2018-08-31T11:01:18.101Z,1.50
2018-08-31T11:03:47.140Z,1.23
2018-08-31T11:06:16.189Z,1.40
2018-08-31T11:08:45.265Z,1.40
2018-08-31T11:11:14.386Z,1.30
2018-08-31T11:13:43.399Z,1.50
2018-08-31T11:16:12.559Z,1.40
2018-08-31T11:18:41.750Z,1.40
2018-08-31T11:21:10.897Z,1.47
2018-08-31T11:23:40.001Z,1.50
2018-08-31T11:26:09.098Z,1.40
2018-08-31T11:28:38.243Z,1.27
2018-08-31T11:31:07.402Z,1.40
2018-08-31T11:33:36.777Z,1.80
2018-08-31T11:36:06.053Z,1.50
2018-08-31T11:38:35.109Z,1.37
2018-08-31T11:41:04.209Z,1.17
2018-08-31T11:43:33.435Z,1.33
2018-08-31T11:46:02.593Z,1.20
2018-08-31T11:48:31.765Z,1.30
2018-08-31T11:51:01.105Z,1.00
2018-08-31T11:53:30.179Z,1.37
2018-08-31T11:55:59.470Z,1.40
2018-08-31T11:58:29.179Z,1.40
2018-08-31T12:00:58.518Z,1.30
2018-08-31T12:03:27.615Z,1.53
2018-08-31T12:05:56.613Z,1.53
2018-08-31T12:08:25.781Z,1.40
2018-08-31T12:10:54.829Z,1.30
2018-08-31T12:13:23.858Z,1.77
2018-08-31T12:15:52.961Z,1.47
2018-08-31T12:18:22.097Z,1.70
2018-08-31T12:20:51.083Z,1.40
2018-08-31T12:23:20.150Z,1.40
2018-08-31T12:25:49.272Z,1.60
2018-08-31T12:28:18.256Z,1.30
2018-08-31T12:30:47.334Z,2.17
2018-08-31T12:33:16.457Z,1.60
2018-08-31T12:35:45.521Z,1.50
2018-08-31T12:38:14.789Z,1.20
2018-08-31T12:40:43.879Z,1.33
2018-08-31T12:43:13.013Z,1.43
2018-08-31T12:45:42.161Z,1.20
2018-08-31T12:48:11.216Z,1.40
2018-08-31T12:50:40.293Z,1.53
2018-08-31T12:53:09.416Z,1.70
2018-08-31T12:55:38.386Z,1.20
2018-08-31T12:58:07.507Z,1.20
2018-08-31T13:00:36.804Z,1.17
2018-08-31T13:03:05.996Z,1.27
2018-08-31T13:05:35.054Z,1.30
2018-08-31T13:08:04.197Z,1.20
2018-08-31T13:10:33.321Z,1.13
2018-08-31T13:13:02.346Z,1.10
2018-08-31T13:15:31.537Z,1.50
2018-08-31T13:18:00.519Z,1.50
2018-08-31T13:20:29.593Z,1.43
2018-08-31T13:22:58.747Z,1.40
2018-08-31T13:25:27.820Z,1.40
2018-08-31T13:27:56.860Z,1.30
2018-08-31T13:30:26.011Z,1.33
2018-08-31T13:32:55.107Z,1.40
2018-08-31T13:35:24.202Z,1.20
2018-08-31T13:37:53.399Z,1.30
2018-08-31T13:40:22.398Z,1.27
2018-08-31T13:42:51.524Z,1.50
2018-08-31T13:45:20.708Z,1.30
2018-08-31T13:47:49.784Z,1.07
2018-08-31T13:50:18.764Z,1.40
2018-08-31T13:52:47.826Z,1.37
2018-08-31T13:55:16.904Z,1.10
2018-08-31T13:57:45.946Z,1.20
2018-08-31T14:00:15.058Z,1.27
2018-08-31T14:02:44.174Z,1.40
2018-08-31T14:05:13.291Z,1.37
2018-08-31T14:07:42.410Z,1.20
2018-08-31T14:10:11.474Z,1.03
2018-08-31T14:12:40.565Z,1.20
2018-08-31T14:15:09.682Z,1.10
2018-08-31T14:17:38.760Z,1.20
2018-08-31T14:20:09.414Z,1.17
2018-08-31T14:22:38.518Z,1.10
2018-08-31T14:25:07.554Z,1.00
2018-08-31T14:27:36.666Z,1.10
2018-08-31T14:30:06.173Z,1.13
2018-08-31T14:32:35.301Z,1.07
2018-08-31T14:35:04.337Z,1.47
2018-08-31T14:37:33.428Z,1.10
2018-08-31T14:40:02.554Z,1.10
2018-08-31T14:42:31.838Z,1.17
2018-08-31T14:45:01.052Z,1.00
2018-08-31T14:47:30.252Z,1.20
2018-08-31T14:49:59.473Z,0.97
2018-08-31T14:52:28.550Z,1.10
2018-08-31T14:54:57.701Z,1.20
2018-08-31T14:57:26.846Z,1.10
2018-08-31T14:59:56.036Z,1.30
2018-08-31T15:02:25.162Z,1.30
2018-08-31T15:04:54.330Z,1.30
2018-08-31T15:07:23.346Z,1.23
2018-08-31T15:09:52.426Z,1.10
2018-08-31T15:12:21.542Z,0.83
2018-08-31T15:14:50.640Z,1.10
2018-08-31T15:17:19.715Z,1.10
2018-08-31T15:19:48.789Z,1.30
2018-08-31T15:22:18.013Z,1.20
2018-08-31T15:24:47.157Z,1.10
2018-08-31T15:27:16.177Z,1.10
2018-08-31T15:29:45.309Z,1.10
2018-08-31T15:32:14.364Z,1.10
2018-08-31T15:34:43.487Z,1.07
2018-08-31T15:37:12.477Z,1.20
2018-08-31T15:39:41.621Z,0.97
2018-08-31T15:42:10.726Z,1.10
2018-08-31T15:44:39.570Z,1.00
2018-08-31T15:47:08.289Z,1.10
2018-08-31T15:49:37.110Z,1.00
2018-08-31T15:52:06.307Z,1.00
2018-08-31T15:54:35.475Z,1.10
2018-08-31T15:57:04.523Z,1.10
2018-08-31T15:59:33.649Z,1.20
2018-08-31T16:02:02.766Z,1.30
2018-08-31T16:04:32.010Z,1.27
2018-08-31T16:07:01.277Z,1.10
2018-08-31T16:09:30.281Z,1.40
2018-08-31T16:11:59.295Z,1.10
2018-08-31T16:14:28.450Z,0.90
2018-08-31T16:16:57.545Z,1.30
2018-08-31T16:19:26.539Z,1.20
2018-08-31T16:21:55.676Z,1.17
2018-08-31T16:24:24.765Z,1.27
2018-08-31T16:26:53.933Z,1.13
2018-08-31T16:29:22.953Z,1.10
2018-08-31T16:31:52.127Z,1.20
2018-08-31T16:34:21.240Z,1.10
2018-08-31T16:36:50.457Z,1.23
2018-08-31T16:39:19.537Z,1.30
2018-08-31T16:41:48.534Z,1.30
2018-08-31T16:44:17.641Z,1.27
2018-08-31T16:46:46.843Z,1.10
2018-08-31T16:49:15.951Z,1.10
2018-08-31T16:51:45.051Z,1.30
2018-08-31T16:54:14.151Z,1.20
2018-08-31T16:56:43.293Z,0.93
2018-08-31T16:59:12.313Z,1.20
2018-08-31T17:01:41.439Z,1.13
2018-08-31T17:04:10.585Z,0.90
2018-08-31T17:06:39.569Z,1.03
2018-08-31T17:09:10.331Z,1.00
2018-08-31T17:11:39.401Z,1.17
2018-08-31T17:14:08.635Z,1.20
2018-08-31T17:16:38.128Z,1.00
2018-08-31T17:19:07.336Z,1.00
2018-08-31T17:21:36.424Z,1.30
2018-08-31T17:24:05.681Z,1.30
2018-08-31T17:26:40.153Z,1.20
2018-08-31T17:29:14.600Z,1.23
2018-08-31T17:31:49.096Z,1.40
2018-08-31T17:34:23.549Z,1.10
2018-08-31T17:36:58.161Z,1.30
2018-08-31T17:39:27.340Z,1.30
2018-08-31T17:41:56.438Z,1.40
2018-08-31T17:44:25.946Z,1.10
2018-08-31T17:46:55.108Z,1.30
2018-08-31T17:49:24.727Z,1.30
2018-08-31T17:51:53.741Z,1.50
2018-08-31T17:54:22.970Z,1.43
2018-08-31T17:56:52.328Z,1.40
2018-08-31T17:59:22.971Z,1.30
2018-08-31T18:01:52.082Z,1.20
2018-08-31T18:04:21.237Z,1.17
2018-08-31T18:06:50.283Z,1.53
2018-08-31T18:09:19.399Z,1.27
2018-08-31T18:11:48.451Z,1.60
2018-08-31T18:14:18.537Z,1.47
2018-08-31T18:16:47.573Z,1.70
2018-08-31T18:19:16.859Z,1.30
2018-08-31T18:21:45.938Z,1.50
2018-08-31T18:24:14.941Z,1.50
2018-08-31T18:26:43.987Z,1.50
2018-08-31T18:29:13.664Z,1.47
2018-08-31T18:31:42.721Z,1.77
2018-08-31T18:34:11.761Z,1.30
2018-08-31T18:36:40.845Z,1.70
2018-08-31T18:39:10.339Z,1.50
2018-08-31T18:41:39.450Z,1.60
2018-08-31T18:44:08.529Z,2.10
2018-08-31T18:46:37.667Z,1.77
2018-08-31T18:49:06.793Z,1.30
2018-08-31T18:51:35.817Z,1.40
2018-08-31T18:54:05.031Z,2.07
2018-08-31T18:56:34.124Z,2.00
2018-08-31T18:59:03.185Z,1.70
2018-08-31T19:01:32.230Z,1.87
2018-08-31T19:04:01.445Z,1.90
2018-08-31T19:06:30.518Z,1.70
2018-08-31T19:08:59.667Z,2.23
2018-08-31T19:11:28.713Z,1.50
2018-08-31T19:13:57.775Z,1.80
2018-08-31T19:16:26.845Z,2.30
2018-08-31T19:18:55.964Z,2.17
2018-08-31T19:21:25.181Z,2.00
2018-08-31T19:23:54.193Z,2.07
2018-08-31T19:26:23.263Z,1.93
2018-08-31T19:28:52.237Z,2.00
2018-08-31T19:31:21.539Z,2.10
2018-08-31T19:33:50.593Z,1.70
2018-08-31T19:36:19.673Z,1.80
2018-08-31T19:38:48.708Z,1.90
2018-08-31T19:41:17.753Z,1.93
2018-08-31T19:43:46.857Z,2.20
2018-08-31T19:46:16.004Z,2.00
2018-08-31T19:48:45.021Z,2.00
2018-08-31T19:51:14.145Z,1.97
2018-08-31T19:53:43.248Z,2.10
2018-08-31T19:56:12.323Z,2.00
2018-08-31T19:58:41.989Z,2.00
2018-08-31T20:01:11.008Z,2.40
2018-08-31T20:03:40.125Z,1.93
2018-08-31T20:06:09.241Z,1.80
2018-08-31T20:09:41.697Z,1.80
2018-08-31T20:12:10.775Z,1.90
2018-08-31T20:14:39.896Z,1.63
2018-08-31T20:17:09.045Z,2.30
2018-08-31T20:19:38.157Z,2.00
2018-08-31T20:22:09.480Z,1.87
2018-08-31T20:24:38.613Z,1.83
2018-08-31T20:27:07.769Z,1.90
2018-08-31T20:29:36.781Z,2.20
2018-08-31T20:32:05.853Z,2.20
2018-08-31T20:34:34.876Z,2.30
2018-08-31T20:37:03.999Z,2.23
2018-08-31T20:39:32.970Z,2.40
2018-08-31T20:42:02.058Z,2.20
2018-08-31T20:44:31.282Z,2.30
2018-08-31T20:47:00.374Z,2.23
2018-08-31T20:49:29.470Z,2.30
2018-08-31T20:51:58.564Z,2.23
2018-08-31T20:54:27.653Z,2.17
2018-08-31T20:56:56.761Z,2.40
2018-08-31T20:59:25.856Z,2.20
2018-08-31T21:01:55.033Z,2.27
2018-08-31T21:04:24.116Z,2.33
2018-08-31T21:06:53.134Z,2.43
2018-08-31T21:09:22.108Z,2.10
2018-08-31T21:11:51.200Z,2.60
2018-08-31T21:14:20.238Z,2.40
2018-08-31T21:16:50.436Z,2.40
2018-08-31T21:19:19.580Z,2.70
2018-08-31T21:21:48.628Z,2.53
2018-08-31T21:24:17.700Z,2.37
2018-08-31T21:26:46.846Z,2.33
2018-08-31T21:29:16.006Z,2.80
2018-08-31T21:31:45.088Z,2.80
2018-08-31T21:34:14.094Z,2.47
2018-08-31T21:36:43.241Z,2.93
2018-08-31T21:39:12.277Z,2.70
2018-08-31T21:41:41.437Z,2.70
2018-08-31T21:44:10.465Z,2.73
2018-08-31T21:46:39.449Z,2.87
2018-08-31T21:49:08.493Z,2.67
2018-08-31T21:51:37.539Z,2.37
2018-08-31T21:54:06.581Z,2.50
2018-08-31T21:56:35.693Z,3.00
2018-08-31T21:59:04.809Z,3.03
2018-08-31T22:01:40.841Z,2.80
2018-08-31T22:04:11.415Z,2.73
2018-08-31T22:06:40.435Z,2.50
2018-08-31T22:09:10.388Z,2.50
2018-08-31T22:11:39.549Z,2.97
2018-08-31T22:14:08.608Z,3.10
2018-08-31T22:16:37.684Z,2.80
2018-08-31T22:19:06.887Z,3.00
2018-08-31T22:21:35.937Z,3.30
2018-08-31T22:24:04.913Z,3.10
2018-08-31T22:26:33.989Z,3.00
2018-08-31T22:29:03.153Z,2.87
2018-08-31T22:31:32.225Z,3.27
2018-08-31T22:34:01.497Z,3.20
2018-08-31T22:36:30.620Z,3.60
2018-08-31T22:38:59.725Z,3.00
2018-08-31T22:41:28.772Z,3.00
2018-08-31T22:43:57.814Z,3.60
2018-08-31T22:46:26.894Z,3.57
2018-08-31T22:48:56.007Z,3.40
2018-08-31T22:51:25.064Z,3.50
2018-08-31T22:53:54.266Z,3.50
2018-08-31T22:56:23.366Z,3.70
2018-08-31T22:58:52.566Z,3.47
2018-08-31T23:01:21.631Z,3.13
2018-08-31T23:03:50.678Z,3.40
2018-08-31T23:06:19.794Z,3.10
2018-08-31T23:08:48.862Z,3.50
2018-08-31T23:11:18.066Z,2.97
2018-08-31T23:13:47.240Z,2.93
2018-08-31T23:16:16.326Z,2.93
2018-08-31T23:18:45.400Z,3.40
2018-08-31T23:21:14.506Z,3.53
2018-08-31T23:23:47.778Z,3.60
2018-08-31T23:26:17.414Z,3.30
2018-08-31T23:28:46.562Z,3.80
2018-08-31T23:31:15.600Z,3.80
2018-08-31T23:33:44.900Z,3.57
2018-08-31T23:36:14.124Z,3.73
2018-08-31T23:38:43.318Z,3.37
2018-08-31T23:41:12.402Z,3.43
2018-08-31T23:43:41.505Z,3.03
2018-08-31T23:46:10.699Z,3.83
2018-08-31T23:48:39.828Z,3.30
2018-08-31T23:51:08.856Z,3.73
2018-08-31T23:53:38.065Z,3.60
2018-08-31T23:56:07.097Z,3.80
2018-08-31T23:58:36.228Z,3.97
